sensor_id;sensor_type;location;lat;lon;timestamp;P1;durP1;ratioP1;P2;durP2;ratioP2
8213;SDS011;4148;47.974;7.824;2023-02-11T00:01:18;46.63;;;23.20;;
8213;SDS011;4148;47.974;7.824;2023-02-11T00:03:48;44.07;;;24.47;;
8213;SDS011;4148;47.974;7.824;2023-02-11T00:06:17;55.93;;;25.50;;
8213;SDS011;4148;47.974;7.824;2023-02-11T00:08:45;44.60;;;24.90;;
8213;SDS011;4148;47.974;7.824;2023-02-11T00:11:14;45.70;;;24.57;;
8213;SDS011;4148;47.974;7.824;2023-02-11T00:13:43;37.50;;;22.50;;
8213;SDS011;4148;47.974;7.824;2023-02-11T00:16:12;44.37;;;24.93;;
8213;SDS011;4148;47.974;7.824;2023-02-11T00:18:41;46.80;;;26.30;;
8213;SDS011;4148;47.974;7.824;2023-02-11T00:21:10;38.87;;;22.87;;
8213;SDS011;4148;47.974;7.824;2023-02-11T00:23:41;46.73;;;23.93;;
8213;SDS011;4148;47.974;7.824;2023-02-11T00:26:12;39.43;;;22.63;;
8213;SDS011;4148;47.974;7.824;2023-02-11T00:28:41;42.83;;;22.13;;
8213;SDS011;4148;47.974;7.824;2023-02-11T00:31:10;43.67;;;23.80;;
8213;SDS011;4148;47.974;7.824;2023-02-11T00:33:38;40.10;;;23.20;;
8213;SDS011;4148;47.974;7.824;2023-02-11T00:36:07;41.33;;;22.87;;
8213;SDS011;4148;47.974;7.824;2023-02-11T00:38:37;43.80;;;24.33;;
8213;SDS011;4148;47.974;7.824;2023-02-11T00:41:07;36.43;;;23.10;;
8213;SDS011;4148;47.974;7.824;2023-02-11T00:43:34;41.13;;;22.40;;
8213;SDS011;4148;47.974;7.824;2023-02-11T00:46:02;45.03;;;23.60;;
8213;SDS011;4148;47.974;7.824;2023-02-11T00:48:31;40.07;;;22.20;;
8213;SDS011;4148;47.974;7.824;2023-02-11T00:50:59;42.43;;;23.30;;
8213;SDS011;4148;47.974;7.824;2023-02-11T00:53:27;45.13;;;22.57;;
8213;SDS011;4148;47.974;7.824;2023-02-11T00:55:55;37.70;;;20.50;;
8213;SDS011;4148;47.974;7.824;2023-02-11T00:58:24;42.40;;;23.20;;
8213;SDS011;4148;47.974;7.824;2023-02-11T01:00:52;38.93;;;22.70;;
8213;SDS011;4148;47.974;7.824;2023-02-11T01:03:20;48.70;;;23.33;;
8213;SDS011;4148;47.974;7.824;2023-02-11T01:05:48;39.73;;;22.20;;
8213;SDS011;4148;47.974;7.824;2023-02-11T01:08:17;40.70;;;22.57;;
8213;SDS011;4148;47.974;7.824;2023-02-11T01:10:45;45.57;;;22.67;;
8213;SDS011;4148;47.974;7.824;2023-02-11T01:13:20;39.70;;;23.07;;
8213;SDS011;4148;47.974;7.824;2023-02-11T01:15:50;45.20;;;24.27;;
8213;SDS011;4148;47.974;7.824;2023-02-11T01:18:18;44.50;;;23.07;;
8213;SDS011;4148;47.974;7.824;2023-02-11T01:20:46;44.33;;;23.47;;
8213;SDS011;4148;47.974;7.824;2023-02-11T01:23:14;39.60;;;22.60;;
8213;SDS011;4148;47.974;7.824;2023-02-11T01:25:42;41.80;;;22.53;;
8213;SDS011;4148;47.974;7.824;2023-02-11T01:28:12;40.40;;;21.33;;
8213;SDS011;4148;47.974;7.824;2023-02-11T01:30:43;45.97;;;22.90;;
8213;SDS011;4148;47.974;7.824;2023-02-11T01:33:12;39.90;;;20.97;;
8213;SDS011;4148;47.974;7.824;2023-02-11T01:35:40;42.23;;;23.17;;
8213;SDS011;4148;47.974;7.824;2023-02-11T01:38:12;38.83;;;21.87;;
8213;SDS011;4148;47.974;7.824;2023-02-11T01:40:45;39.00;;;21.67;;
8213;SDS011;4148;47.974;7.824;2023-02-11T01:43:13;41.63;;;22.60;;
8213;SDS011;4148;47.974;7.824;2023-02-11T01:48:51;40.33;;;21.63;;
8213;SDS011;4148;47.974;7.824;2023-02-11T01:51:23;45.17;;;23.60;;
8213;SDS011;4148;47.974;7.824;2023-02-11T01:53:53;41.70;;;21.67;;
8213;SDS011;4148;47.974;7.824;2023-02-11T01:56:41;36.57;;;20.67;;
8213;SDS011;4148;47.974;7.824;2023-02-11T01:59:31;38.13;;;19.00;;
8213;SDS011;4148;47.974;7.824;2023-02-11T02:02:04;37.43;;;18.77;;
8213;SDS011;4148;47.974;7.824;2023-02-11T02:04:38;35.37;;;18.73;;
8213;SDS011;4148;47.974;7.824;2023-02-11T02:07:13;40.20;;;20.13;;
8213;SDS011;4148;47.974;7.824;2023-02-11T02:09:47;33.47;;;18.87;;
8213;SDS011;4148;47.974;7.824;2023-02-11T02:12:21;34.87;;;18.87;;
8213;SDS011;4148;47.974;7.824;2023-02-11T02:14:49;34.30;;;19.10;;
8213;SDS011;4148;47.974;7.824;2023-02-11T02:17:21;39.57;;;19.73;;
8213;SDS011;4148;47.974;7.824;2023-02-11T02:23:03;31.70;;;18.47;;
8213;SDS011;4148;47.974;7.824;2023-02-11T02:28:59;37.00;;;19.33;;
8213;SDS011;4148;47.974;7.824;2023-02-11T02:31:53;35.97;;;19.57;;
8213;SDS011;4148;47.974;7.824;2023-02-11T02:34:43;33.83;;;19.63;;
8213;SDS011;4148;47.974;7.824;2023-02-11T02:37:18;34.20;;;19.87;;
8213;SDS011;4148;47.974;7.824;2023-02-11T02:39:50;37.67;;;21.00;;
8213;SDS011;4148;47.974;7.824;2023-02-11T02:42:18;38.93;;;19.73;;
8213;SDS011;4148;47.974;7.824;2023-02-11T02:44:47;40.40;;;19.70;;
8213;SDS011;4148;47.974;7.824;2023-02-11T02:47:17;41.57;;;20.80;;
8213;SDS011;4148;47.974;7.824;2023-02-11T02:49:45;39.87;;;20.40;;
8213;SDS011;4148;47.974;7.824;2023-02-11T02:52:19;38.13;;;20.53;;
8213;SDS011;4148;47.974;7.824;2023-02-11T02:55:04;42.00;;;20.47;;
8213;SDS011;4148;47.974;7.824;2023-02-11T02:57:38;38.10;;;20.47;;
8213;SDS011;4148;47.974;7.824;2023-02-11T03:00:18;35.40;;;19.30;;
8213;SDS011;4148;47.974;7.824;2023-02-11T03:02:58;41.87;;;21.57;;
8213;SDS011;4148;47.974;7.824;2023-02-11T03:05:37;34.13;;;21.00;;
8213;SDS011;4148;47.974;7.824;2023-02-11T03:08:11;36.77;;;21.00;;
8213;SDS011;4148;47.974;7.824;2023-02-11T03:10:44;42.80;;;21.13;;
8213;SDS011;4148;47.974;7.824;2023-02-11T03:13:13;35.50;;;20.27;;
8213;SDS011;4148;47.974;7.824;2023-02-11T03:15:44;39.83;;;19.33;;
8213;SDS011;4148;47.974;7.824;2023-02-11T03:18:17;39.67;;;20.40;;
8213;SDS011;4148;47.974;7.824;2023-02-11T03:20:49;40.90;;;21.40;;
8213;SDS011;4148;47.974;7.824;2023-02-11T03:23:20;38.10;;;21.47;;
8213;SDS011;4148;47.974;7.824;2023-02-11T03:25:54;39.70;;;19.47;;
8213;SDS011;4148;47.974;7.824;2023-02-11T03:28:26;37.97;;;20.40;;
8213;SDS011;4148;47.974;7.824;2023-02-11T03:31:01;39.17;;;21.00;;
8213;SDS011;4148;47.974;7.824;2023-02-11T03:33:39;42.13;;;21.30;;
8213;SDS011;4148;47.974;7.824;2023-02-11T03:36:16;36.40;;;18.77;;
8213;SDS011;4148;47.974;7.824;2023-02-11T03:38:49;35.37;;;20.20;;
8213;SDS011;4148;47.974;7.824;2023-02-11T03:41:22;35.67;;;19.90;;
8213;SDS011;4148;47.974;7.824;2023-02-11T03:43:52;41.77;;;21.80;;
8213;SDS011;4148;47.974;7.824;2023-02-11T03:46:24;39.47;;;19.27;;
8213;SDS011;4148;47.974;7.824;2023-02-11T03:49:00;37.73;;;20.10;;
8213;SDS011;4148;47.974;7.824;2023-02-11T03:51:31;39.17;;;20.47;;
8213;SDS011;4148;47.974;7.824;2023-02-11T03:54:00;39.93;;;20.57;;
8213;SDS011;4148;47.974;7.824;2023-02-11T03:56:31;35.90;;;18.97;;
8213;SDS011;4148;47.974;7.824;2023-02-11T03:59:02;37.80;;;21.10;;
8213;SDS011;4148;47.974;7.824;2023-02-11T04:01:30;37.60;;;19.90;;
8213;SDS011;4148;47.974;7.824;2023-02-11T04:03:59;42.10;;;21.63;;
8213;SDS011;4148;47.974;7.824;2023-02-11T04:06:27;39.03;;;20.00;;
8213;SDS011;4148;47.974;7.824;2023-02-11T04:08:55;37.13;;;19.87;;
8213;SDS011;4148;47.974;7.824;2023-02-11T04:11:23;45.43;;;22.17;;
8213;SDS011;4148;47.974;7.824;2023-02-11T04:13:51;38.03;;;21.67;;
8213;SDS011;4148;47.974;7.824;2023-02-11T04:16:18;45.47;;;21.40;;
8213;SDS011;4148;47.974;7.824;2023-02-11T04:18:47;36.50;;;21.03;;
8213;SDS011;4148;47.974;7.824;2023-02-11T04:21:16;38.47;;;21.30;;
8213;SDS011;4148;47.974;7.824;2023-02-11T04:23:44;41.37;;;20.77;;
8213;SDS011;4148;47.974;7.824;2023-02-11T04:26:11;53.30;;;21.60;;
8213;SDS011;4148;47.974;7.824;2023-02-11T04:28:39;42.87;;;20.37;;
8213;SDS011;4148;47.974;7.824;2023-02-11T04:31:07;40.13;;;21.57;;
8213;SDS011;4148;47.974;7.824;2023-02-11T04:33:37;38.47;;;20.30;;
8213;SDS011;4148;47.974;7.824;2023-02-11T04:36:05;40.00;;;20.93;;
8213;SDS011;4148;47.974;7.824;2023-02-11T04:38:35;37.00;;;19.67;;
8213;SDS011;4148;47.974;7.824;2023-02-11T04:41:03;41.07;;;21.30;;
8213;SDS011;4148;47.974;7.824;2023-02-11T04:43:31;43.33;;;21.50;;
8213;SDS011;4148;47.974;7.824;2023-02-11T04:45:59;38.83;;;19.97;;
8213;SDS011;4148;47.974;7.824;2023-02-11T04:48:26;35.30;;;18.70;;
8213;SDS011;4148;47.974;7.824;2023-02-11T04:50:54;38.23;;;20.17;;
8213;SDS011;4148;47.974;7.824;2023-02-11T04:53:22;36.20;;;20.70;;
8213;SDS011;4148;47.974;7.824;2023-02-11T04:55:51;36.70;;;18.43;;
8213;SDS011;4148;47.974;7.824;2023-02-11T04:58:19;41.00;;;20.03;;
8213;SDS011;4148;47.974;7.824;2023-02-11T05:00:47;36.40;;;19.40;;
8213;SDS011;4148;47.974;7.824;2023-02-11T05:03:15;37.30;;;21.80;;
8213;SDS011;4148;47.974;7.824;2023-02-11T05:05:43;38.83;;;19.13;;
8213;SDS011;4148;47.974;7.824;2023-02-11T05:08:11;39.63;;;20.73;;
8213;SDS011;4148;47.974;7.824;2023-02-11T05:10:39;34.00;;;18.00;;
8213;SDS011;4148;47.974;7.824;2023-02-11T05:13:13;34.10;;;18.07;;
8213;SDS011;4148;47.974;7.824;2023-02-11T05:15:40;38.27;;;19.90;;
8213;SDS011;4148;47.974;7.824;2023-02-11T05:18:08;32.40;;;17.10;;
8213;SDS011;4148;47.974;7.824;2023-02-11T05:20:36;33.53;;;17.47;;
8213;SDS011;4148;47.974;7.824;2023-02-11T05:23:04;40.37;;;18.30;;
8213;SDS011;4148;47.974;7.824;2023-02-11T05:25:32;32.50;;;17.77;;
8213;SDS011;4148;47.974;7.824;2023-02-11T05:28:00;36.17;;;17.97;;
8213;SDS011;4148;47.974;7.824;2023-02-11T05:30:30;35.87;;;17.97;;
8213;SDS011;4148;47.974;7.824;2023-02-11T05:32:58;33.47;;;16.57;;
8213;SDS011;4148;47.974;7.824;2023-02-11T05:35:26;29.80;;;16.27;;
8213;SDS011;4148;47.974;7.824;2023-02-11T05:37:54;34.67;;;17.20;;
8213;SDS011;4148;47.974;7.824;2023-02-11T05:40:22;37.47;;;20.83;;
8213;SDS011;4148;47.974;7.824;2023-02-11T05:42:49;41.10;;;20.17;;
8213;SDS011;4148;47.974;7.824;2023-02-11T05:45:17;42.50;;;19.87;;
8213;SDS011;4148;47.974;7.824;2023-02-11T05:47:46;36.17;;;18.70;;
8213;SDS011;4148;47.974;7.824;2023-02-11T05:50:14;37.83;;;20.27;;
8213;SDS011;4148;47.974;7.824;2023-02-11T05:52:42;47.30;;;20.77;;
8213;SDS011;4148;47.974;7.824;2023-02-11T05:55:10;35.50;;;18.63;;
8213;SDS011;4148;47.974;7.824;2023-02-11T05:57:38;36.33;;;18.60;;
8213;SDS011;4148;47.974;7.824;2023-02-11T06:00:06;34.97;;;17.47;;
8213;SDS011;4148;47.974;7.824;2023-02-11T06:02:35;33.80;;;18.13;;
8213;SDS011;4148;47.974;7.824;2023-02-11T06:05:05;40.10;;;17.87;;
8213;SDS011;4148;47.974;7.824;2023-02-11T06:07:34;32.20;;;17.77;;
8213;SDS011;4148;47.974;7.824;2023-02-11T06:10:02;28.80;;;16.80;;
8213;SDS011;4148;47.974;7.824;2023-02-11T06:12:30;34.60;;;16.70;;
8213;SDS011;4148;47.974;7.824;2023-02-11T06:14:57;33.23;;;16.90;;
8213;SDS011;4148;47.974;7.824;2023-02-11T06:17:25;31.80;;;17.70;;
8213;SDS011;4148;47.974;7.824;2023-02-11T06:19:56;36.13;;;19.20;;
8213;SDS011;4148;47.974;7.824;2023-02-11T06:22:26;35.67;;;19.23;;
8213;SDS011;4148;47.974;7.824;2023-02-11T06:24:54;41.00;;;21.37;;
8213;SDS011;4148;47.974;7.824;2023-02-11T06:27:27;42.03;;;20.23;;
8213;SDS011;4148;47.974;7.824;2023-02-11T06:29:55;37.07;;;20.63;;
8213;SDS011;4148;47.974;7.824;2023-02-11T06:32:23;39.70;;;21.77;;
8213;SDS011;4148;47.974;7.824;2023-02-11T06:35:09;44.47;;;22.00;;
8213;SDS011;4148;47.974;7.824;2023-02-11T06:37:39;39.10;;;21.70;;
8213;SDS011;4148;47.974;7.824;2023-02-11T06:40:07;39.83;;;21.10;;
8213;SDS011;4148;47.974;7.824;2023-02-11T06:42:35;44.00;;;22.27;;
8213;SDS011;4148;47.974;7.824;2023-02-11T06:45:05;40.57;;;21.70;;
8213;SDS011;4148;47.974;7.824;2023-02-11T06:47:34;37.50;;;21.07;;
8213;SDS011;4148;47.974;7.824;2023-02-11T06:50:02;44.50;;;22.30;;
8213;SDS011;4148;47.974;7.824;2023-02-11T06:52:31;40.23;;;21.63;;
8213;SDS011;4148;47.974;7.824;2023-02-11T06:55:01;49.70;;;22.73;;
8213;SDS011;4148;47.974;7.824;2023-02-11T06:57:29;45.00;;;23.23;;
8213;SDS011;4148;47.974;7.824;2023-02-11T06:59:57;48.37;;;22.43;;
8213;SDS011;4148;47.974;7.824;2023-02-11T07:02:25;45.20;;;24.00;;
8213;SDS011;4148;47.974;7.824;2023-02-11T07:04:53;45.13;;;22.63;;
8213;SDS011;4148;47.974;7.824;2023-02-11T07:07:21;48.23;;;22.00;;
8213;SDS011;4148;47.974;7.824;2023-02-11T07:09:49;47.40;;;21.47;;
8213;SDS011;4148;47.974;7.824;2023-02-11T07:12:18;38.07;;;21.87;;
8213;SDS011;4148;47.974;7.824;2023-02-11T07:14:46;42.83;;;22.60;;
8213;SDS011;4148;47.974;7.824;2023-02-11T07:17:14;42.87;;;22.50;;
8213;SDS011;4148;47.974;7.824;2023-02-11T07:19:42;39.83;;;23.90;;
8213;SDS011;4148;47.974;7.824;2023-02-11T07:22:10;44.10;;;22.47;;
8213;SDS011;4148;47.974;7.824;2023-02-11T07:24:38;40.60;;;21.53;;
8213;SDS011;4148;47.974;7.824;2023-02-11T07:27:05;43.97;;;22.10;;
8213;SDS011;4148;47.974;7.824;2023-02-11T07:29:35;40.80;;;23.33;;
8213;SDS011;4148;47.974;7.824;2023-02-11T07:32:03;42.60;;;21.40;;
8213;SDS011;4148;47.974;7.824;2023-02-11T07:34:32;39.00;;;22.50;;
8213;SDS011;4148;47.974;7.824;2023-02-11T07:37:00;53.87;;;24.30;;
8213;SDS011;4148;47.974;7.824;2023-02-11T07:39:28;41.77;;;23.30;;
8213;SDS011;4148;47.974;7.824;2023-02-11T07:41:56;42.50;;;23.17;;
8213;SDS011;4148;47.974;7.824;2023-02-11T07:44:24;48.97;;;23.63;;
8213;SDS011;4148;47.974;7.824;2023-02-11T07:46:53;45.80;;;24.17;;
8213;SDS011;4148;47.974;7.824;2023-02-11T07:49:21;43.53;;;24.57;;
8213;SDS011;4148;47.974;7.824;2023-02-11T07:51:48;40.40;;;23.73;;
8213;SDS011;4148;47.974;7.824;2023-02-11T07:54:17;45.97;;;23.63;;
8213;SDS011;4148;47.974;7.824;2023-02-11T07:56:45;48.07;;;24.03;;
8213;SDS011;4148;47.974;7.824;2023-02-11T07:59:12;46.00;;;24.60;;
8213;SDS011;4148;47.974;7.824;2023-02-11T08:01:40;48.10;;;25.90;;
8213;SDS011;4148;47.974;7.824;2023-02-11T08:04:09;50.23;;;25.60;;
8213;SDS011;4148;47.974;7.824;2023-02-11T08:06:39;41.37;;;23.70;;
8213;SDS011;4148;47.974;7.824;2023-02-11T08:09:09;47.57;;;26.40;;
8213;SDS011;4148;47.974;7.824;2023-02-11T08:11:41;45.10;;;24.63;;
8213;SDS011;4148;47.974;7.824;2023-02-11T08:14:09;47.33;;;24.37;;
8213;SDS011;4148;47.974;7.824;2023-02-11T08:16:38;50.80;;;25.90;;
8213;SDS011;4148;47.974;7.824;2023-02-11T08:19:07;47.07;;;25.73;;
8213;SDS011;4148;47.974;7.824;2023-02-11T08:21:39;39.70;;;23.03;;
8213;SDS011;4148;47.974;7.824;2023-02-11T08:24:07;42.47;;;24.37;;
8213;SDS011;4148;47.974;7.824;2023-02-11T08:26:35;42.63;;;23.47;;
8213;SDS011;4148;47.974;7.824;2023-02-11T08:29:06;40.73;;;23.77;;
8213;SDS011;4148;47.974;7.824;2023-02-11T08:31:37;45.87;;;22.97;;
8213;SDS011;4148;47.974;7.824;2023-02-11T08:34:06;40.73;;;24.13;;
8213;SDS011;4148;47.974;7.824;2023-02-11T08:36:38;40.03;;;22.83;;
8213;SDS011;4148;47.974;7.824;2023-02-11T08:39:11;38.43;;;22.60;;
8213;SDS011;4148;47.974;7.824;2023-02-11T08:41:45;39.20;;;22.47;;
8213;SDS011;4148;47.974;7.824;2023-02-11T08:44:14;41.20;;;23.53;;
8213;SDS011;4148;47.974;7.824;2023-02-11T08:46:42;36.17;;;21.43;;
8213;SDS011;4148;47.974;7.824;2023-02-11T08:49:10;40.63;;;22.60;;
8213;SDS011;4148;47.974;7.824;2023-02-11T08:51:39;36.77;;;21.10;;
8213;SDS011;4148;47.974;7.824;2023-02-11T08:54:07;40.13;;;22.63;;
8213;SDS011;4148;47.974;7.824;2023-02-11T08:56:35;40.87;;;22.43;;
8213;SDS011;4148;47.974;7.824;2023-02-11T08:59:04;48.03;;;22.30;;
8213;SDS011;4148;47.974;7.824;2023-02-11T09:01:34;38.80;;;22.90;;
8213;SDS011;4148;47.974;7.824;2023-02-11T09:04:02;38.40;;;20.73;;
8213;SDS011;4148;47.974;7.824;2023-02-11T09:06:30;37.67;;;20.90;;
8213;SDS011;4148;47.974;7.824;2023-02-11T09:08:59;38.17;;;21.30;;
8213;SDS011;4148;47.974;7.824;2023-02-11T09:11:28;36.90;;;21.60;;
8213;SDS011;4148;47.974;7.824;2023-02-11T09:13:58;34.87;;;21.10;;
8213;SDS011;4148;47.974;7.824;2023-02-11T09:16:27;35.77;;;21.43;;
8213;SDS011;4148;47.974;7.824;2023-02-11T09:18:56;37.53;;;20.87;;
8213;SDS011;4148;47.974;7.824;2023-02-11T09:21:25;34.50;;;22.30;;
8213;SDS011;4148;47.974;7.824;2023-02-11T09:23:54;39.27;;;22.60;;
8213;SDS011;4148;47.974;7.824;2023-02-11T09:26:24;38.50;;;23.13;;
8213;SDS011;4148;47.974;7.824;2023-02-11T09:28:54;38.67;;;23.70;;
8213;SDS011;4148;47.974;7.824;2023-02-11T09:31:23;41.63;;;24.00;;
8213;SDS011;4148;47.974;7.824;2023-02-11T09:33:54;42.30;;;25.50;;
8213;SDS011;4148;47.974;7.824;2023-02-11T09:36:25;39.27;;;22.57;;
8213;SDS011;4148;47.974;7.824;2023-02-11T09:38:54;34.77;;;22.77;;
8213;SDS011;4148;47.974;7.824;2023-02-11T09:41:30;39.43;;;24.67;;
8213;SDS011;4148;47.974;7.824;2023-02-11T09:44:04;45.70;;;25.23;;
8213;SDS011;4148;47.974;7.824;2023-02-11T09:46:34;37.30;;;23.60;;
8213;SDS011;4148;47.974;7.824;2023-02-11T09:49:06;39.43;;;25.40;;
8213;SDS011;4148;47.974;7.824;2023-02-11T09:51:38;42.97;;;28.03;;
8213;SDS011;4148;47.974;7.824;2023-02-11T09:54:11;43.50;;;26.20;;
8213;SDS011;4148;47.974;7.824;2023-02-11T09:56:46;42.50;;;26.20;;
8213;SDS011;4148;47.974;7.824;2023-02-11T09:59:15;36.60;;;24.20;;
8213;SDS011;4148;47.974;7.824;2023-02-11T10:01:44;41.27;;;25.30;;
8213;SDS011;4148;47.974;7.824;2023-02-11T10:04:18;36.07;;;25.37;;
8213;SDS011;4148;47.974;7.824;2023-02-11T10:06:54;40.10;;;27.57;;
8213;SDS011;4148;47.974;7.824;2023-02-11T10:09:27;39.70;;;25.97;;
8213;SDS011;4148;47.974;7.824;2023-02-11T10:12:15;43.93;;;26.37;;
8213;SDS011;4148;47.974;7.824;2023-02-11T10:14:54;36.57;;;25.07;;
8213;SDS011;4148;47.974;7.824;2023-02-11T10:17:34;40.30;;;27.70;;
8213;SDS011;4148;47.974;7.824;2023-02-11T10:20:14;38.23;;;26.47;;
8213;SDS011;4148;47.974;7.824;2023-02-11T10:22:51;39.17;;;25.97;;
8213;SDS011;4148;47.974;7.824;2023-02-11T10:25:21;41.17;;;27.17;;
8213;SDS011;4148;47.974;7.824;2023-02-11T10:27:53;37.23;;;26.10;;
8213;SDS011;4148;47.974;7.824;2023-02-11T10:30:25;41.40;;;27.40;;
8213;SDS011;4148;47.974;7.824;2023-02-11T10:32:59;39.63;;;27.23;;
8213;SDS011;4148;47.974;7.824;2023-02-11T10:35:28;46.13;;;29.20;;
8213;SDS011;4148;47.974;7.824;2023-02-11T10:37:58;42.00;;;28.23;;
8213;SDS011;4148;47.974;7.824;2023-02-11T10:40:27;42.50;;;27.57;;
8213;SDS011;4148;47.974;7.824;2023-02-11T10:42:58;42.80;;;29.50;;
8213;SDS011;4148;47.974;7.824;2023-02-11T10:45:31;37.77;;;27.47;;
8213;SDS011;4148;47.974;7.824;2023-02-11T10:48:01;38.47;;;27.23;;
8213;SDS011;4148;47.974;7.824;2023-02-11T10:50:32;40.87;;;28.10;;
8213;SDS011;4148;47.974;7.824;2023-02-11T10:53:10;42.77;;;28.70;;
8213;SDS011;4148;47.974;7.824;2023-02-11T10:55:46;35.20;;;25.60;;
8213;SDS011;4148;47.974;7.824;2023-02-11T10:58:36;41.23;;;28.10;;
8213;SDS011;4148;47.974;7.824;2023-02-11T11:01:09;38.70;;;29.37;;
8213;SDS011;4148;47.974;7.824;2023-02-11T11:03:50;43.13;;;30.40;;
8213;SDS011;4148;47.974;7.824;2023-02-11T11:06:27;48.93;;;30.10;;
8213;SDS011;4148;47.974;7.824;2023-02-11T11:08:56;41.87;;;28.83;;
8213;SDS011;4148;47.974;7.824;2023-02-11T11:11:24;40.90;;;29.57;;
8213;SDS011;4148;47.974;7.824;2023-02-11T11:13:55;44.97;;;31.07;;
8213;SDS011;4148;47.974;7.824;2023-02-11T11:16:26;41.30;;;29.40;;
8213;SDS011;4148;47.974;7.824;2023-02-11T11:21:46;44.47;;;30.17;;
8213;SDS011;4148;47.974;7.824;2023-02-11T11:24:17;42.93;;;30.70;;
8213;SDS011;4148;47.974;7.824;2023-02-11T11:26:46;48.57;;;30.93;;
8213;SDS011;4148;47.974;7.824;2023-02-11T11:29:17;44.13;;;30.10;;
8213;SDS011;4148;47.974;7.824;2023-02-11T11:31:47;41.20;;;28.37;;
8213;SDS011;4148;47.974;7.824;2023-02-11T11:34:24;37.10;;;28.20;;
8213;SDS011;4148;47.974;7.824;2023-02-11T11:36:55;36.77;;;26.87;;
8213;SDS011;4148;47.974;7.824;2023-02-11T11:39:25;39.90;;;27.03;;
8213;SDS011;4148;47.974;7.824;2023-02-11T11:41:56;37.57;;;26.73;;
8213;SDS011;4148;47.974;7.824;2023-02-11T11:44:27;38.87;;;26.90;;
8213;SDS011;4148;47.974;7.824;2023-02-11T11:47:06;36.63;;;26.07;;
8213;SDS011;4148;47.974;7.824;2023-02-11T11:49:49;33.37;;;25.23;;
8213;SDS011;4148;47.974;7.824;2023-02-11T11:52:33;36.80;;;28.20;;
8213;SDS011;4148;47.974;7.824;2023-02-11T11:55:08;35.07;;;25.80;;
8213;SDS011;4148;47.974;7.824;2023-02-11T11:57:41;36.57;;;25.50;;
8213;SDS011;4148;47.974;7.824;2023-02-11T12:00:14;34.60;;;25.10;;
8213;SDS011;4148;47.974;7.824;2023-02-11T12:03:05;36.27;;;27.60;;
8213;SDS011;4148;47.974;7.824;2023-02-11T12:05:54;38.83;;;26.40;;
8213;SDS011;4148;47.974;7.824;2023-02-11T12:08:36;37.67;;;26.30;;
8213;SDS011;4148;47.974;7.824;2023-02-11T12:11:11;40.10;;;27.57;;
8213;SDS011;4148;47.974;7.824;2023-02-11T12:13:54;36.63;;;25.33;;
8213;SDS011;4148;47.974;7.824;2023-02-11T12:16:35;34.93;;;24.03;;
8213;SDS011;4148;47.974;7.824;2023-02-11T12:19:21;41.03;;;24.67;;
8213;SDS011;4148;47.974;7.824;2023-02-11T12:22:19;39.83;;;24.53;;
8213;SDS011;4148;47.974;7.824;2023-02-11T12:25:04;34.83;;;24.70;;
8213;SDS011;4148;47.974;7.824;2023-02-11T12:27:47;36.50;;;25.43;;
8213;SDS011;4148;47.974;7.824;2023-02-11T12:30:26;37.77;;;24.40;;
8213;SDS011;4148;47.974;7.824;2023-02-11T12:33:06;34.07;;;23.57;;
8213;SDS011;4148;47.974;7.824;2023-02-11T12:35:46;40.60;;;25.23;;
8213;SDS011;4148;47.974;7.824;2023-02-11T12:38:28;35.63;;;24.37;;
8213;SDS011;4148;47.974;7.824;2023-02-11T12:41:12;38.50;;;25.30;;
8213;SDS011;4148;47.974;7.824;2023-02-11T12:44:29;38.43;;;26.00;;
8213;SDS011;4148;47.974;7.824;2023-02-11T12:47:07;37.73;;;25.60;;
8213;SDS011;4148;47.974;7.824;2023-02-11T12:50:07;37.17;;;26.27;;
8213;SDS011;4148;47.974;7.824;2023-02-11T12:52:48;37.80;;;24.47;;
8213;SDS011;4148;47.974;7.824;2023-02-11T12:55:24;36.40;;;23.40;;
8213;SDS011;4148;47.974;7.824;2023-02-11T12:57:55;36.80;;;24.13;;
8213;SDS011;4148;47.974;7.824;2023-02-11T13:00:37;34.00;;;22.47;;
8213;SDS011;4148;47.974;7.824;2023-02-11T13:03:10;35.67;;;23.60;;
8213;SDS011;4148;47.974;7.824;2023-02-11T13:05:44;36.80;;;23.73;;
8213;SDS011;4148;47.974;7.824;2023-02-11T13:08:16;34.33;;;22.90;;
8213;SDS011;4148;47.974;7.824;2023-02-11T13:10:47;33.40;;;23.10;;
8213;SDS011;4148;47.974;7.824;2023-02-11T13:13:20;35.23;;;23.43;;
8213;SDS011;4148;47.974;7.824;2023-02-11T13:15:53;32.27;;;21.53;;
8213;SDS011;4148;47.974;7.824;2023-02-11T13:18:34;35.13;;;22.87;;
8213;SDS011;4148;47.974;7.824;2023-02-11T13:21:18;30.93;;;22.03;;
8213;SDS011;4148;47.974;7.824;2023-02-11T13:23:58;37.63;;;22.03;;
8213;SDS011;4148;47.974;7.824;2023-02-11T13:26:35;35.77;;;23.53;;
8213;SDS011;4148;47.974;7.824;2023-02-11T13:29:14;35.57;;;22.83;;
8213;SDS011;4148;47.974;7.824;2023-02-11T13:31:52;37.27;;;24.90;;
8213;SDS011;4148;47.974;7.824;2023-02-11T13:34:22;39.37;;;24.63;;
8213;SDS011;4148;47.974;7.824;2023-02-11T13:36:54;36.10;;;24.17;;
8213;SDS011;4148;47.974;7.824;2023-02-11T13:39:23;35.07;;;22.13;;
8213;SDS011;4148;47.974;7.824;2023-02-11T13:41:51;37.03;;;22.10;;
8213;SDS011;4148;47.974;7.824;2023-02-11T13:44:29;35.20;;;20.90;;
8213;SDS011;4148;47.974;7.824;2023-02-11T13:47:01;34.83;;;21.20;;
8213;SDS011;4148;47.974;7.824;2023-02-11T13:49:32;33.50;;;19.70;;
8213;SDS011;4148;47.974;7.824;2023-02-11T13:52:21;30.50;;;19.33;;
8213;SDS011;4148;47.974;7.824;2023-02-11T13:54:52;31.67;;;18.90;;
8213;SDS011;4148;47.974;7.824;2023-02-11T13:57:25;37.00;;;21.63;;
8213;SDS011;4148;47.974;7.824;2023-02-11T14:06:10;32.53;;;18.90;;
8213;SDS011;4148;47.974;7.824;2023-02-11T14:09:07;29.30;;;18.10;;
8213;SDS011;4148;47.974;7.824;2023-02-11T14:11:51;34.50;;;19.57;;
8213;SDS011;4148;47.974;7.824;2023-02-11T14:14:23;34.33;;;19.10;;
8213;SDS011;4148;47.974;7.824;2023-02-11T14:19:56;31.50;;;18.93;;
8213;SDS011;4148;47.974;7.824;2023-02-11T14:22:26;29.27;;;17.80;;
8213;SDS011;4148;47.974;7.824;2023-02-11T14:24:57;32.30;;;17.30;;
8213;SDS011;4148;47.974;7.824;2023-02-11T14:27:36;25.83;;;16.03;;
8213;SDS011;4148;47.974;7.824;2023-02-11T14:30:11;29.57;;;16.03;;
8213;SDS011;4148;47.974;7.824;2023-02-11T14:32:51;30.73;;;16.33;;
8213;SDS011;4148;47.974;7.824;2023-02-11T14:35:35;25.17;;;13.73;;
8213;SDS011;4148;47.974;7.824;2023-02-11T14:38:11;22.93;;;12.90;;
8213;SDS011;4148;47.974;7.824;2023-02-11T14:40:50;26.30;;;14.20;;
8213;SDS011;4148;47.974;7.824;2023-02-11T14:43:27;22.93;;;12.97;;
8213;SDS011;4148;47.974;7.824;2023-02-11T14:45:57;24.80;;;13.73;;
8213;SDS011;4148;47.974;7.824;2023-02-11T14:48:28;22.33;;;13.73;;
8213;SDS011;4148;47.974;7.824;2023-02-11T14:50:57;23.60;;;14.00;;
8213;SDS011;4148;47.974;7.824;2023-02-11T14:53:28;27.13;;;15.10;;
8213;SDS011;4148;47.974;7.824;2023-02-11T14:55:59;26.10;;;13.40;;
8213;SDS011;4148;47.974;7.824;2023-02-11T14:58:28;22.53;;;12.53;;
8213;SDS011;4148;47.974;7.824;2023-02-11T15:00:57;23.13;;;13.20;;
8213;SDS011;4148;47.974;7.824;2023-02-11T15:03:27;26.23;;;13.30;;
8213;SDS011;4148;47.974;7.824;2023-02-11T15:06:04;22.90;;;12.90;;
8213;SDS011;4148;47.974;7.824;2023-02-11T15:08:34;21.47;;;12.23;;
8213;SDS011;4148;47.974;7.824;2023-02-11T15:11:08;19.67;;;10.90;;
8213;SDS011;4148;47.974;7.824;2023-02-11T15:13:39;17.63;;;9.50;;
8213;SDS011;4148;47.974;7.824;2023-02-11T15:16:12;19.40;;;10.60;;
8213;SDS011;4148;47.974;7.824;2023-02-11T15:18:44;15.13;;;9.43;;
8213;SDS011;4148;47.974;7.824;2023-02-11T15:21:18;13.70;;;8.10;;
8213;SDS011;4148;47.974;7.824;2023-02-11T15:23:54;19.60;;;8.80;;
8213;SDS011;4148;47.974;7.824;2023-02-11T15:26:25;20.50;;;9.93;;
8213;SDS011;4148;47.974;7.824;2023-02-11T15:28:54;20.60;;;11.23;;
8213;SDS011;4148;47.974;7.824;2023-02-11T15:31:22;18.63;;;10.23;;
8213;SDS011;4148;47.974;7.824;2023-02-11T15:33:51;45.93;;;11.67;;
8213;SDS011;4148;47.974;7.824;2023-02-11T15:36:21;27.87;;;10.80;;
8213;SDS011;4148;47.974;7.824;2023-02-11T15:41:57;30.43;;;11.93;;